This is the latest recevied weather packets stored in our database for station/object OZ1IEP-5. If no packets are shown the sender has not sent any weather packets the latest 10 day(s).
| Time | Temp. | Humidity | Pressure | Rain* | Wind** | Luminosity | Snow |
|---|---|---|---|---|---|---|---|
| 1787487005 | 15.56° C | 88% | 1013 hPa | 0.51 mm | - | 65 W/m² | - |
| 1787486407 | 15.56° C | 87% | 1013 hPa | 0.25 mm | - | 97 W/m² | - |
| 1787485805 | 16.11° C | 85% | 1012.9 hPa | 0.25 mm | - | 130 W/m² | - |
| 1787485206 | 16.67° C | 85% | 1012.6 hPa | 0 mm | - | 223 W/m² | - |
| 1787484608 | 16.67° C | 82% | 1012.5 hPa | 0 mm | - | 355 W/m² | - |
| 1787484006 | 16.67° C | 83% | 1012.5 hPa | 0 mm | - | 269 W/m² | - |
| 1787483405 | 16.67° C | 84% | 1012.5 hPa | 0 mm | - | 144 W/m² | - |
| 1787482808 | 16.11° C | 84% | 1012.5 hPa | 0 mm | - | 185 W/m² | - |
| 1787482205 | 16.11° C | 81% | 1012.4 hPa | 0 mm | - | 163 W/m² | - |
| 1787481606 | 16.11° C | 81% | 1012.5 hPa | 0 mm | - | 155 W/m² | - |
| 1787481008 | 16.11° C | 81% | 1012.5 hPa | 0 mm | - | 972 W/m² | - |
| 1787480406 | 15.56° C | 77% | 1012.5 hPa | 0 mm | - | 183 W/m² | - |
| 1787479805 | 17.22° C | 87% | 1012.5 hPa | 0.25 mm | - | 118 W/m² | - |
| 1787479207 | 16.67° C | 88% | 1012.4 hPa | 0.25 mm | - | 295 W/m² | - |
| 1787478606 | 16.11° C | 90% | 1012.3 hPa | 0.25 mm | - | 629 W/m² | - |
| 1787478006 | 15.56° C | 90% | 1012.3 hPa | 0.25 mm | - | 650 W/m² | - |
| 1787477408 | 15.56° C | 91% | 1012.3 hPa | 0.25 mm | - | 248 W/m² | - |
| 1787476806 | 15.56° C | 91% | 1012.3 hPa | 0.25 mm | - | 163 W/m² | - |
| 1787476206 | 15° C | 91% | 1012.3 hPa | 0 mm | - | 265 W/m² | - |
| 1787475608 | 15° C | 91% | 1012.2 hPa | 0 mm | - | 156 W/m² | - |
| 1787475006 | 14.44° C | 91% | 1012.2 hPa | 0.25 mm | - | 134 W/m² | - |
| 1787474406 | 14.44° C | 90% | 1012.2 hPa | 0.25 mm | - | 21 W/m² | - |
| 1787473808 | 14.44° C | 90% | 1012.3 hPa | 0.25 mm | - | 79 W/m² | - |
| 1787473206 | 14.44° C | 90% | 1012.4 hPa | 0.25 mm | - | 109 W/m² | - |
| 1787472605 | 14.44° C | 90% | 1012.4 hPa | 0.25 mm | - | 185 W/m² | - |
* Rain latest hour (hover to see other rain measurements)
** Current wind speed in m/s (hover to see current wind gust speed)